createdAt,value
2022-08-04T00:02:56.901Z,22.76
2022-08-04T00:06:03.901Z,22.74
2022-08-04T00:09:13.357Z,22.69
2022-08-04T00:12:18.008Z,22.64
2022-08-04T00:15:22.712Z,22.59
2022-08-04T00:18:33.467Z,22.53
2022-08-04T00:21:40.036Z,22.49
2022-08-04T00:24:44.849Z,22.43
2022-08-04T00:27:48.458Z,22.39
2022-08-04T00:30:52.640Z,22.28
2022-08-04T00:33:57.635Z,22.19
2022-08-04T00:37:00.449Z,22.15
2022-08-04T00:40:10.419Z,22.15
2022-08-04T00:43:20.588Z,22.15
2022-08-04T00:46:47.475Z,22.13
2022-08-04T00:50:04.629Z,22.10
2022-08-04T00:53:14.637Z,22.09
2022-08-04T00:56:40.356Z,22.02
2022-08-04T01:00:00.934Z,22.00
2022-08-04T01:03:15.331Z,21.96
2022-08-04T01:06:26.465Z,21.99
2022-08-04T01:09:42.531Z,21.96
2022-08-04T01:13:07.748Z,21.89
2022-08-04T01:16:18.550Z,21.85
2022-08-04T01:19:51.915Z,21.81
2022-08-04T01:23:27.098Z,21.77
2022-08-04T01:26:58.700Z,21.80
2022-08-04T01:30:03.381Z,21.76
2022-08-04T01:33:10.440Z,21.67
2022-08-04T01:36:14.345Z,21.64
2022-08-04T01:39:34.936Z,21.63
2022-08-04T01:42:38.302Z,21.57
2022-08-04T01:45:42.787Z,21.53
2022-08-04T01:48:48.452Z,21.46
2022-08-04T01:51:53.079Z,21.43
2022-08-04T01:54:56.579Z,21.41
2022-08-04T01:58:01.543Z,21.42
2022-08-04T02:01:08.655Z,21.40
2022-08-04T02:04:19.997Z,21.30
2022-08-04T02:07:38.747Z,21.27
2022-08-04T02:10:55.775Z,21.39
2022-08-04T02:14:07.756Z,21.42
2022-08-04T02:17:14.483Z,21.39
2022-08-04T02:20:24.212Z,21.29
2022-08-04T02:23:31.840Z,21.25
2022-08-04T02:26:36.512Z,21.15
2022-08-04T02:29:45.133Z,21.06
2022-08-04T02:32:53.277Z,21.02
2022-08-04T02:36:02.401Z,20.99
2022-08-04T02:39:07.811Z,20.99
2022-08-04T02:42:13.174Z,20.99
2022-08-04T02:45:20.357Z,21.01
2022-08-04T02:48:30.320Z,21.01
2022-08-04T02:51:36.799Z,20.94
2022-08-04T02:54:42.994Z,20.95
2022-08-04T02:57:50.068Z,20.96
2022-08-04T03:00:53.002Z,20.92
2022-08-04T03:04:24.376Z,20.88
2022-08-04T03:07:55.531Z,20.80
2022-08-04T03:11:15.279Z,20.74
2022-08-04T03:14:37.798Z,20.68
2022-08-04T03:18:09.814Z,20.67
2022-08-04T03:22:02.963Z,20.62
2022-08-04T03:25:30.268Z,20.61
2022-08-04T03:29:11.626Z,20.62
2022-08-04T03:32:50.880Z,20.56
2022-08-04T03:36:12.952Z,20.52
2022-08-04T03:39:40.758Z,20.49
2022-08-04T03:43:56.960Z,20.46
2022-08-04T03:47:12.966Z,20.47
2022-08-04T03:50:46.298Z,20.44
2022-08-04T03:54:09.045Z,20.49
2022-08-04T03:57:48.511Z,20.46
2022-08-04T04:01:03.644Z,20.44
2022-08-04T04:04:48.223Z,20.45
2022-08-04T04:08:23.845Z,20.41
2022-08-04T04:12:05.051Z,20.45
2022-08-04T04:15:30.179Z,20.51
2022-08-04T04:18:50.398Z,20.54
2022-08-04T04:22:23.308Z,20.54
2022-08-04T04:25:37.114Z,20.55
2022-08-04T04:29:01.562Z,20.54
2022-08-04T04:32:22.631Z,20.57
2022-08-04T04:35:34.717Z,20.66
2022-08-04T04:38:53.681Z,20.64
2022-08-04T04:42:17.296Z,20.70
2022-08-04T04:45:26.992Z,20.75
2022-08-04T04:48:43.519Z,20.80
2022-08-04T04:51:50.755Z,20.82
2022-08-04T04:55:01.561Z,20.79
2022-08-04T04:58:14.209Z,20.78
2022-08-04T05:01:43.567Z,20.81
2022-08-04T05:05:12.376Z,20.91
2022-08-04T05:08:45.011Z,21.02
2022-08-04T05:14:22.822Z,21.17
2022-08-04T05:15:47.554Z,21.38
2022-08-04T05:18:56.890Z,21.63
2022-08-04T05:22:11.180Z,21.66
2022-08-04T05:25:22.223Z,21.58
2022-08-04T05:28:31.377Z,21.76
2022-08-04T05:31:38.442Z,21.85
2022-08-04T05:34:45.188Z,22.09
2022-08-04T05:38:01.511Z,22.12
2022-08-04T05:41:06.676Z,22.10
2022-08-04T05:44:11.135Z,22.11
2022-08-04T05:47:16.872Z,22.18
2022-08-04T05:50:20.349Z,22.37
2022-08-04T05:53:25.733Z,23.35
2022-08-04T05:56:30.111Z,24.17
2022-08-04T05:59:35.307Z,24.73
2022-08-04T06:02:40.119Z,25.06
2022-08-04T06:05:44.712Z,25.25
2022-08-04T06:08:49.039Z,25.42
2022-08-04T06:12:00.799Z,25.58
2022-08-04T06:15:10.714Z,25.94
2022-08-04T06:19:56.570Z,25.88
2022-08-04T06:21:40.453Z,26.29
2022-08-04T06:24:48.120Z,26.53
2022-08-04T06:27:51.941Z,26.73
2022-08-04T06:30:58.516Z,27.00
2022-08-04T06:34:21.467Z,27.26
2022-08-04T06:37:42.740Z,27.40
2022-08-04T06:40:48.393Z,27.54
2022-08-04T06:43:52.700Z,27.54
2022-08-04T06:46:57.147Z,27.53
2022-08-04T06:51:24.435Z,27.65
2022-08-04T06:53:25.307Z,27.59
2022-08-04T06:56:31.944Z,27.73
2022-08-04T06:59:35.163Z,27.94
2022-08-04T07:02:44.039Z,27.97
2022-08-04T07:05:48.570Z,28.00
2022-08-04T07:08:52.197Z,28.16
2022-08-04T07:11:56.943Z,28.30
2022-08-04T07:15:00.451Z,28.53
2022-08-04T07:18:05.094Z,28.60
2022-08-04T07:21:08.691Z,28.60
2022-08-04T07:24:12.533Z,28.68
2022-08-04T07:27:18.392Z,28.77
2022-08-04T07:30:45.187Z,28.85
2022-08-04T07:34:16.823Z,28.91
2022-08-04T07:37:11.977Z,28.84
2022-08-04T07:40:15.393Z,28.88
2022-08-04T07:43:20.012Z,28.87
2022-08-04T07:46:23.071Z,28.98
2022-08-04T07:49:54.921Z,28.89
2022-08-04T07:53:15.346Z,29.02
2022-08-04T07:56:17.594Z,29.15
2022-08-04T07:59:21.806Z,29.12
2022-08-04T08:02:25.083Z,29.09
2022-08-04T08:05:29.182Z,29.22
2022-08-04T08:08:32.020Z,29.23
2022-08-04T08:12:35.506Z,29.06
2022-08-04T08:15:00.558Z,28.90
2022-08-04T08:18:03.262Z,28.69
2022-08-04T08:21:07.708Z,28.52
2022-08-04T08:24:12.788Z,28.28
2022-08-04T08:27:15.981Z,28.23
2022-08-04T08:30:20.148Z,28.28
2022-08-04T08:33:25.158Z,28.30
2022-08-04T08:36:33.996Z,28.44
2022-08-04T08:39:41.227Z,28.56
2022-08-04T08:44:05.722Z,28.61
2022-08-04T08:47:02.481Z,28.69
2022-08-04T08:50:28.937Z,28.78
2022-08-04T08:53:51.280Z,29.01
2022-08-04T08:57:10.359Z,29.07
2022-08-04T09:00:19.428Z,29.20
2022-08-04T09:03:42.763Z,29.38
2022-08-04T09:06:55.146Z,29.61
2022-08-04T09:10:08.110Z,29.65
2022-08-04T09:13:17.625Z,29.72
2022-08-04T09:16:25.607Z,29.90
2022-08-04T09:19:39.418Z,29.90
2022-08-04T09:22:50.597Z,30.06
2022-08-04T09:26:02.383Z,30.13
2022-08-04T09:29:12.244Z,30.22
2022-08-04T09:32:29.131Z,30.36
2022-08-04T09:35:43.466Z,30.49
2022-08-04T09:38:52.742Z,30.52
2022-08-04T09:42:05.570Z,30.72
2022-08-04T09:45:26.213Z,30.73
2022-08-04T09:48:38.058Z,30.90
2022-08-04T09:51:57.495Z,31.04
2022-08-04T09:55:10.506Z,31.22
2022-08-04T09:58:23.752Z,31.24
2022-08-04T10:01:30.080Z,31.40
2022-08-04T10:04:36.017Z,31.55
2022-08-04T10:08:16.277Z,31.71
2022-08-04T10:11:33.522Z,31.84
2022-08-04T10:14:41.565Z,32.00
2022-08-04T10:18:00.995Z,32.18
2022-08-04T10:21:15.371Z,32.30
2022-08-04T10:24:34.141Z,32.48
2022-08-04T10:27:44.627Z,32.58
2022-08-04T10:30:51.789Z,32.65
2022-08-04T10:34:01.667Z,32.66
2022-08-04T10:37:10.758Z,32.70
2022-08-04T10:40:40.910Z,32.92
2022-08-04T10:43:50.671Z,33.04
2022-08-04T10:46:58.217Z,33.14
2022-08-04T10:50:03.847Z,33.24
2022-08-04T10:53:13.012Z,33.32
2022-08-04T10:56:24.209Z,33.35
2022-08-04T10:59:32.456Z,33.43
2022-08-04T11:02:42.858Z,33.55
2022-08-04T11:05:50.205Z,33.63
2022-08-04T11:08:56.465Z,33.74
2022-08-04T11:12:08.499Z,33.85
2022-08-04T11:15:14.551Z,33.98
2022-08-04T11:18:26.454Z,34.08
2022-08-04T11:21:34.968Z,34.14
2022-08-04T11:24:45.482Z,34.20
2022-08-04T11:27:57.132Z,34.35
2022-08-04T11:31:06.148Z,34.50
2022-08-04T11:34:21.417Z,34.60
2022-08-04T11:37:26.900Z,34.70
2022-08-04T11:40:38.212Z,34.79
2022-08-04T11:44:00.670Z,34.88
2022-08-04T11:47:16.044Z,34.98
2022-08-04T11:50:23.022Z,35.02
2022-08-04T11:53:36.269Z,35.08
2022-08-04T11:56:40.917Z,35.19
2022-08-04T11:59:46.449Z,35.19
2022-08-04T12:03:07.782Z,35.31
2022-08-04T12:06:19.058Z,35.39
2022-08-04T12:09:32.730Z,35.43
2022-08-04T12:12:43.593Z,35.50
2022-08-04T12:15:56.611Z,35.59
2022-08-04T12:19:03.259Z,35.68
2022-08-04T12:22:12.773Z,35.75
2022-08-04T12:25:21.147Z,35.70
2022-08-04T12:28:46.714Z,35.74
2022-08-04T12:32:02.015Z,35.80
2022-08-04T12:35:14.302Z,35.86
2022-08-04T12:38:17.487Z,36.01
2022-08-04T12:41:25.527Z,36.16
2022-08-04T12:44:38.249Z,36.26
2022-08-04T12:47:45.050Z,36.41
2022-08-04T12:50:51.585Z,36.59
2022-08-04T12:53:54.308Z,36.85
2022-08-04T12:57:00.424Z,36.40
2022-08-04T13:00:03.404Z,36.20
2022-08-04T13:03:12.623Z,36.02
2022-08-04T13:06:21.126Z,36.05
2022-08-04T13:09:30.903Z,36.08
2022-08-04T13:12:35.292Z,35.92
2022-08-04T13:15:47.625Z,35.82
2022-08-04T13:19:05.326Z,35.81
2022-08-04T13:22:08.575Z,35.74
2022-08-04T13:26:41.672Z,35.78
2022-08-04T13:28:42.921Z,35.87
2022-08-04T13:31:52.592Z,35.93
2022-08-04T13:34:59.325Z,36.16
2022-08-04T13:38:03.386Z,36.10
2022-08-04T13:41:07.453Z,36.16
2022-08-04T13:44:17.947Z,36.23
2022-08-04T13:47:24.234Z,36.37
2022-08-04T13:50:30.204Z,36.43
2022-08-04T13:53:34.388Z,36.49
2022-08-04T13:56:41.549Z,36.52
2022-08-04T13:59:49.237Z,36.57
2022-08-04T14:02:59.988Z,36.60
2022-08-04T14:06:16.609Z,36.63
2022-08-04T14:09:21.790Z,36.65
2022-08-04T14:12:47.296Z,36.63
2022-08-04T14:16:01.175Z,36.59
2022-08-04T14:19:06.964Z,36.62
2022-08-04T14:22:29.213Z,36.62
2022-08-04T14:25:35.640Z,36.67
2022-08-04T14:29:25.475Z,36.62
2022-08-04T14:32:05.954Z,36.69
2022-08-04T14:35:16.644Z,36.76
2022-08-04T14:38:21.064Z,36.82
2022-08-04T14:41:26.153Z,36.80
2022-08-04T14:44:28.869Z,36.82
2022-08-04T14:47:52.119Z,36.82
2022-08-04T14:50:56.034Z,36.81
2022-08-04T14:54:03.975Z,36.80
2022-08-04T14:57:10.846Z,36.79
2022-08-04T15:00:24.901Z,36.62
2022-08-04T15:03:29.509Z,36.61
2022-08-04T15:06:33.676Z,36.66
2022-08-04T15:09:37.962Z,36.71
2022-08-04T15:12:41.644Z,36.73
2022-08-04T15:16:06.995Z,36.68
2022-08-04T15:19:09.225Z,36.67
2022-08-04T15:22:17.477Z,36.62
2022-08-04T15:25:21.955Z,36.62
2022-08-04T15:28:28.837Z,36.66
2022-08-04T15:32:06.047Z,36.69
2022-08-04T15:35:07.191Z,36.76
2022-08-04T15:38:15.445Z,36.81
2022-08-04T15:41:27.461Z,36.85
2022-08-04T15:45:21.228Z,36.87
2022-08-04T15:48:27.275Z,36.85
2022-08-04T15:51:31.834Z,36.85
2022-08-04T15:54:36.754Z,36.84
2022-08-04T15:58:02.240Z,36.83
2022-08-04T16:01:15.805Z,36.77
2022-08-04T16:04:23.416Z,36.73
2022-08-04T16:07:57.438Z,36.67
2022-08-04T16:11:00.228Z,36.61
2022-08-04T16:14:11.501Z,36.59
2022-08-04T16:17:19.164Z,36.49
2022-08-04T16:20:23.886Z,36.52
2022-08-04T16:23:57.999Z,36.45
2022-08-04T16:27:03.136Z,36.37
2022-08-04T16:30:13.738Z,36.21
2022-08-04T16:33:17.719Z,36.27
2022-08-04T16:36:56.793Z,36.19
2022-08-04T16:40:37.167Z,36.12
2022-08-04T16:43:41.468Z,36.08
2022-08-04T16:47:08.223Z,36.01
2022-08-04T16:50:09.247Z,35.83
2022-08-04T16:53:14.602Z,35.67
2022-08-04T16:56:36.939Z,35.45
2022-08-04T16:59:39.863Z,35.27
2022-08-04T17:02:46.165Z,35.12
2022-08-04T17:05:49.508Z,34.99
2022-08-04T17:08:52.407Z,34.61
2022-08-04T17:11:56.006Z,34.75
2022-08-04T17:14:58.772Z,34.64
2022-08-04T17:18:18.764Z,34.49
2022-08-04T17:21:24.939Z,34.37
2022-08-04T17:24:27.654Z,34.22
2022-08-04T17:28:08.750Z,34.09
2022-08-04T17:30:55.336Z,33.97
2022-08-04T17:34:02.147Z,33.83
2022-08-04T17:37:36.594Z,33.65
2022-08-04T17:40:27.947Z,33.46
2022-08-04T17:44:03.291Z,33.30
2022-08-04T17:47:12.658Z,33.18
2022-08-04T17:50:25.439Z,33.02
2022-08-04T17:53:53.042Z,32.91
2022-08-04T17:56:58.612Z,32.76
2022-08-04T18:00:01.984Z,32.60
2022-08-04T18:03:11.473Z,32.44
2022-08-04T18:06:21.325Z,32.34
2022-08-04T18:09:57.428Z,32.18
2022-08-04T18:12:48.776Z,32.02
2022-08-04T18:15:52.039Z,31.86
2022-08-04T18:19:11.213Z,31.61
2022-08-04T18:22:26.601Z,31.47
2022-08-04T18:25:51.799Z,31.35
2022-08-04T18:28:53.759Z,31.23
2022-08-04T18:31:56.493Z,31.08
2022-08-04T18:35:05.435Z,30.98
2022-08-04T18:38:23.577Z,30.89
2022-08-04T18:41:27.815Z,30.79
2022-08-04T18:44:31.216Z,30.65
2022-08-04T18:47:58.413Z,30.56
2022-08-04T18:51:10.227Z,30.42
2022-08-04T18:54:16.661Z,30.34
2022-08-04T18:57:32.518Z,30.25
2022-08-04T19:00:45.715Z,30.11
2022-08-04T19:03:54.330Z,30.01
2022-08-04T19:07:29.319Z,29.93
2022-08-04T19:10:27.304Z,29.84
2022-08-04T19:13:34.716Z,29.70
2022-08-04T19:16:40.755Z,29.54
2022-08-04T19:19:47.400Z,29.42
2022-08-04T19:24:10.656Z,29.29
2022-08-04T19:26:27.751Z,29.19
2022-08-04T19:29:37.696Z,29.11
2022-08-04T19:32:41.408Z,29.04
2022-08-04T19:35:51.548Z,28.98
2022-08-04T19:38:55.650Z,28.94
2022-08-04T19:42:06.678Z,28.88
2022-08-04T19:48:34.079Z,28.77
2022-08-04T19:51:38.878Z,28.75
2022-08-04T19:54:47.043Z,28.75
2022-08-04T19:57:53.531Z,28.68
2022-08-04T20:00:56.553Z,28.50
2022-08-04T20:04:08.868Z,28.34
2022-08-04T20:07:15.439Z,28.19
2022-08-04T20:10:18.724Z,28.12
2022-08-04T20:13:33.833Z,28.14
2022-08-04T20:16:40.299Z,28.20
2022-08-04T20:19:51.535Z,28.23
2022-08-04T20:22:54.524Z,28.20
2022-08-04T20:25:57.354Z,28.18
2022-08-04T20:29:01.664Z,28.09
2022-08-04T20:32:09.805Z,27.93
2022-08-04T20:35:15.759Z,27.74
2022-08-04T20:38:33.620Z,27.62
2022-08-04T20:41:37.139Z,27.47
2022-08-04T20:44:42.211Z,27.36
2022-08-04T20:47:53.209Z,27.32
2022-08-04T20:50:57.558Z,27.26
2022-08-04T20:54:00.326Z,27.24
2022-08-04T20:57:03.690Z,27.22
2022-08-04T21:00:10.002Z,27.20
2022-08-04T21:03:15.957Z,27.22
2022-08-04T21:06:19.049Z,27.18
2022-08-04T21:09:37.243Z,27.17
2022-08-04T21:12:41.490Z,27.08
2022-08-04T21:15:58.115Z,26.95
2022-08-04T21:19:04.154Z,26.81
2022-08-04T21:22:10.463Z,26.84
2022-08-04T21:25:16.348Z,26.82
2022-08-04T21:28:20.471Z,26.77
2022-08-04T21:31:25.930Z,26.73
2022-08-04T21:34:38.461Z,26.70
2022-08-04T21:37:58.116Z,26.69
2022-08-04T21:41:04.816Z,26.70
2022-08-04T21:44:09.312Z,26.66
2022-08-04T21:47:23.709Z,26.61
2022-08-04T21:50:30.649Z,26.54
2022-08-04T21:53:33.624Z,26.46
2022-08-04T21:56:37.991Z,26.38
2022-08-04T21:59:45.937Z,26.37
2022-08-04T22:02:53.551Z,26.36
2022-08-04T22:05:57.331Z,26.34
2022-08-04T22:09:00.795Z,26.31
2022-08-04T22:12:03.888Z,26.28
2022-08-04T22:15:23.145Z,26.25
2022-08-04T22:18:37.074Z,26.25
2022-08-04T22:21:45.521Z,26.18
2022-08-04T22:24:49.550Z,26.13
2022-08-04T22:28:03.564Z,26.12
2022-08-04T22:31:23.347Z,26.17
2022-08-04T22:34:30.495Z,26.13
2022-08-04T22:37:36.175Z,26.04
2022-08-04T22:40:47.819Z,25.94
2022-08-04T22:43:54.919Z,25.91
2022-08-04T22:46:57.941Z,25.96
2022-08-04T22:50:26.655Z,25.99
2022-08-04T22:53:26.057Z,26.03
2022-08-04T22:56:38.359Z,26.03
2022-08-04T22:59:43.390Z,26.01
2022-08-04T23:02:46.236Z,25.99
2022-08-04T23:05:53.066Z,25.95
2022-08-04T23:08:57.502Z,25.90
2022-08-04T23:12:23.736Z,25.84
2022-08-04T23:15:23.078Z,25.82
2022-08-04T23:18:26.750Z,25.77
2022-08-04T23:21:40.991Z,25.70
2022-08-04T23:24:50.252Z,25.62
2022-08-04T23:27:53.726Z,25.59
2022-08-04T23:30:57.598Z,25.53
2022-08-04T23:34:00.766Z,25.52
2022-08-04T23:37:04.973Z,25.52
2022-08-04T23:40:23.483Z,25.51
2022-08-04T23:43:49.627Z,25.48
2022-08-04T23:47:01.915Z,25.45
2022-08-04T23:50:05.455Z,25.42
2022-08-04T23:53:09.789Z,25.39
2022-08-04T23:56:21.538Z,25.31
2022-08-04T23:59:52.724Z,25.22
